sensor_id;sensor_type;location;lat;lon;timestamp;temperature;humidity
37342;DHT22;58643;49.052;8.518;2022-10-18T05:31:36;14.80;99.90
37342;DHT22;58643;49.052;8.518;2022-10-18T05:34:02;16.10;99.90
37342;DHT22;58643;49.052;8.518;2022-10-18T05:36:28;14.40;99.90
37342;DHT22;58643;49.052;8.518;2022-10-18T05:38:53;15.60;99.90
37342;DHT22;58643;49.052;8.518;2022-10-18T05:41:20;14.60;99.90
37342;DHT22;58643;49.052;8.518;2022-10-18T05:43:45;14.80;99.90
37342;DHT22;58643;49.052;8.518;2022-10-18T05:46:11;16.00;99.90
37342;DHT22;58643;49.052;8.518;2022-10-18T05:48:37;16.60;99.90
37342;DHT22;58643;49.052;8.518;2022-10-18T05:51:05;14.80;99.90
37342;DHT22;58643;49.052;8.518;2022-10-18T05:53:31;16.40;99.90
37342;DHT22;58643;49.052;8.518;2022-10-18T05:56:00;16.30;99.90
37342;DHT22;58643;49.052;8.518;2022-10-18T05:58:26;14.90;99.90
37342;DHT22;58643;49.052;8.518;2022-10-18T06:00:51;16.80;99.90
37342;DHT22;58643;49.052;8.518;2022-10-18T06:03:17;15.00;99.90
37342;DHT22;58643;49.052;8.518;2022-10-18T06:05:43;16.90;99.90
37342;DHT22;58643;49.052;8.518;2022-10-18T06:08:08;15.30;99.90
37342;DHT22;58643;49.052;8.518;2022-10-18T06:10:34;16.70;99.90
37342;DHT22;58643;49.052;8.518;2022-10-18T06:13:02;15.90;99.90
37342;DHT22;58643;49.052;8.518;2022-10-18T06:15:28;15.30;99.90
37342;DHT22;58643;49.052;8.518;2022-10-18T06:17:53;16.40;99.90
37342;DHT22;58643;49.052;8.518;2022-10-18T06:20:19;15.10;99.90
37342;DHT22;58643;49.052;8.518;2022-10-18T06:22:44;15.30;99.90
37342;DHT22;58643;49.052;8.518;2022-10-18T06:25:10;15.40;99.90
37342;DHT22;58643;49.052;8.518;2022-10-18T06:27:35;15.60;99.90
37342;DHT22;58643;49.052;8.518;2022-10-18T06:30:01;17.50;99.90
37342;DHT22;58643;49.052;8.518;2022-10-18T06:32:27;15.70;99.90
37342;DHT22;58643;49.052;8.518;2022-10-18T06:34:52;15.70;99.90
37342;DHT22;58643;49.052;8.518;2022-10-18T06:37:18;15.80;99.90
37342;DHT22;58643;49.052;8.518;2022-10-18T06:39:43;16.70;99.90
37342;DHT22;58643;49.052;8.518;2022-10-18T06:42:09;17.40;99.90
37342;DHT22;58643;49.052;8.518;2022-10-18T06:44:34;17.70;99.90
37342;DHT22;58643;49.052;8.518;2022-10-18T06:47:00;17.20;99.90
37342;DHT22;58643;49.052;8.518;2022-10-18T06:49:25;17.70;99.90
37342;DHT22;58643;49.052;8.518;2022-10-18T06:51:52;16.00;99.90
37342;DHT22;58643;49.052;8.518;2022-10-18T06:54:18;16.00;99.90
37342;DHT22;58643;49.052;8.518;2022-10-18T06:56:44;16.50;99.90
37342;DHT22;58643;49.052;8.518;2022-10-18T06:59:09;17.10;99.90
37342;DHT22;58643;49.052;8.518;2022-10-18T07:01:35;18.30;99.90
37342;DHT22;58643;49.052;8.518;2022-10-18T07:04:00;18.50;99.90
37342;DHT22;58643;49.052;8.518;2022-10-18T07:06:26;17.40;99.90
37342;DHT22;58643;49.052;8.518;2022-10-18T07:08:52;16.80;99.90
37342;DHT22;58643;49.052;8.518;2022-10-18T07:11:21;17.00;99.90
37342;DHT22;58643;49.052;8.518;2022-10-18T07:13:48;18.90;99.90
37342;DHT22;58643;49.052;8.518;2022-10-18T07:16:15;17.80;99.90
37342;DHT22;58643;49.052;8.518;2022-10-18T07:18:44;17.80;99.90
37342;DHT22;58643;49.052;8.518;2022-10-18T07:21:12;17.00;99.90
37342;DHT22;58643;49.052;8.518;2022-10-18T07:23:40;18.00;99.90
37342;DHT22;58643;49.052;8.518;2022-10-18T07:26:20;16.80;99.90
37342;DHT22;58643;49.052;8.518;2022-10-18T07:28:51;16.80;99.90
37342;DHT22;58643;49.052;8.518;2022-10-18T07:31:19;16.80;99.90
37342;DHT22;58643;49.052;8.518;2022-10-18T07:33:45;17.00;99.90
37342;DHT22;58643;49.052;8.518;2022-10-18T07:36:11;17.60;99.90
37342;DHT22;58643;49.052;8.518;2022-10-18T07:38:37;16.80;99.90
37342;DHT22;58643;49.052;8.518;2022-10-18T07:41:05;17.10;99.90
37342;DHT22;58643;49.052;8.518;2022-10-18T07:43:31;18.20;99.90
37342;DHT22;58643;49.052;8.518;2022-10-18T07:45:59;17.00;99.90
37342;DHT22;58643;49.052;8.518;2022-10-18T07:48:25;17.00;99.90
37342;DHT22;58643;49.052;8.518;2022-10-18T07:50:51;17.60;99.90
37342;DHT22;58643;49.052;8.518;2022-10-18T07:53:17;18.00;99.90
37342;DHT22;58643;49.052;8.518;2022-10-18T07:55:43;18.00;99.90
37342;DHT22;58643;49.052;8.518;2022-10-18T07:58:09;17.10;99.90
37342;DHT22;58643;49.052;8.518;2022-10-18T08:00:35;17.30;99.90
37342;DHT22;58643;49.052;8.518;2022-10-18T08:03:01;17.90;99.90
37342;DHT22;58643;49.052;8.518;2022-10-18T08:05:27;16.80;99.90
37342;DHT22;58643;49.052;8.518;2022-10-18T08:07:53;16.70;99.90
37342;DHT22;58643;49.052;8.518;2022-10-18T08:10:19;16.70;99.90
37342;DHT22;58643;49.052;8.518;2022-10-18T08:12:45;18.40;99.90
37342;DHT22;58643;49.052;8.518;2022-10-18T08:15:10;16.80;99.90
37342;DHT22;58643;49.052;8.518;2022-10-18T08:17:36;16.50;99.90
37342;DHT22;58643;49.052;8.518;2022-10-18T08:20:02;18.30;99.90
37342;DHT22;58643;49.052;8.518;2022-10-18T08:22:28;16.80;99.90
37342;DHT22;58643;49.052;8.518;2022-10-18T08:24:53;17.70;99.90
37342;DHT22;58643;49.052;8.518;2022-10-18T08:27:19;18.10;99.90
37342;DHT22;58643;49.052;8.518;2022-10-18T08:29:45;18.70;99.90
37342;DHT22;58643;49.052;8.518;2022-10-18T08:32:10;18.80;99.90
37342;DHT22;58643;49.052;8.518;2022-10-18T08:34:36;19.50;99.90
37342;DHT22;58643;49.052;8.518;2022-10-18T08:37:02;20.80;99.90
37342;DHT22;58643;49.052;8.518;2022-10-18T08:39:27;21.60;99.90
37342;DHT22;58643;49.052;8.518;2022-10-18T08:44:27;21.80;99.90
37342;DHT22;58643;49.052;8.518;2022-10-18T08:47:04;21.00;99.90
37342;DHT22;58643;49.052;8.518;2022-10-18T08:49:59;20.80;99.90
37342;DHT22;58643;49.052;8.518;2022-10-18T08:55:51;20.10;99.90
37342;DHT22;58643;49.052;8.518;2022-10-18T08:58:24;20.10;99.90
37342;DHT22;58643;49.052;8.518;2022-10-18T09:06:03;21.50;99.90
37342;DHT22;58643;49.052;8.518;2022-10-18T09:09:00;21.20;99.90
37342;DHT22;58643;49.052;8.518;2022-10-18T09:25:42;19.40;99.90
37342;DHT22;58643;49.052;8.518;2022-10-18T09:34:07;19.10;99.90
37342;DHT22;58643;49.052;8.518;2022-10-18T09:36:34;19.00;99.90
37342;DHT22;58643;49.052;8.518;2022-10-18T09:39:15;19.20;99.90
37342;DHT22;58643;49.052;8.518;2022-10-18T09:41:53;19.40;99.90
37342;DHT22;58643;49.052;8.518;2022-10-18T09:44:38;20.60;99.90
37342;DHT22;58643;49.052;8.518;2022-10-18T09:47:19;19.70;99.90
37342;DHT22;58643;49.052;8.518;2022-10-18T09:50:20;19.80;99.90
37342;DHT22;58643;49.052;8.518;2022-10-18T09:52:58;19.30;99.90
37342;DHT22;58643;49.052;8.518;2022-10-18T09:55:31;19.20;99.90
37342;DHT22;58643;49.052;8.518;2022-10-18T09:58:01;20.00;99.90
37342;DHT22;58643;49.052;8.518;2022-10-18T10:00:33;20.80;99.90
37342;DHT22;58643;49.052;8.518;2022-10-18T10:03:00;21.00;99.90
37342;DHT22;58643;49.052;8.518;2022-10-18T10:05:26;22.10;99.90
37342;DHT22;58643;49.052;8.518;2022-10-18T10:07:57;22.80;99.90
37342;DHT22;58643;49.052;8.518;2022-10-18T10:10:25;24.10;99.90
37342;DHT22;58643;49.052;8.518;2022-10-18T10:13:09;24.10;99.90
37342;DHT22;58643;49.052;8.518;2022-10-18T10:15:38;25.60;99.90
37342;DHT22;58643;49.052;8.518;2022-10-18T10:18:35;24.90;99.90
37342;DHT22;58643;49.052;8.518;2022-10-18T10:21:05;24.70;99.90
37342;DHT22;58643;49.052;8.518;2022-10-18T10:23:54;24.60;99.90
37342;DHT22;58643;49.052;8.518;2022-10-18T10:26:33;24.90;99.90
37342;DHT22;58643;49.052;8.518;2022-10-18T10:28:59;24.40;99.90
37342;DHT22;58643;49.052;8.518;2022-10-18T10:31:27;24.50;99.90
37342;DHT22;58643;49.052;8.518;2022-10-18T10:34:17;24.70;99.90
37342;DHT22;58643;49.052;8.518;2022-10-18T10:36:52;24.10;99.90
37342;DHT22;58643;49.052;8.518;2022-10-18T10:39:20;24.50;99.90
37342;DHT22;58643;49.052;8.518;2022-10-18T10:41:47;24.60;99.90
37342;DHT22;58643;49.052;8.518;2022-10-18T10:44:19;24.40;99.90
37342;DHT22;58643;49.052;8.518;2022-10-18T10:46:47;24.20;99.90
37342;DHT22;58643;49.052;8.518;2022-10-18T10:49:21;23.90;99.90
37342;DHT22;58643;49.052;8.518;2022-10-18T10:52:17;22.80;99.90
37342;DHT22;58643;49.052;8.518;2022-10-18T10:54:44;22.70;99.90
37342;DHT22;58643;49.052;8.518;2022-10-18T11:04:49;24.80;99.90
37342;DHT22;58643;49.052;8.518;2022-10-18T11:07:39;26.00;99.90
37342;DHT22;58643;49.052;8.518;2022-10-18T11:12:43;26.60;99.90
37342;DHT22;58643;49.052;8.518;2022-10-18T11:25:08;28.50;99.90
37342;DHT22;58643;49.052;8.518;2022-10-18T11:28:10;29.00;99.90
